sensor_id;sensor_type;location;lat;lon;timestamp;P1;durP1;ratioP1;P2;durP2;ratioP2
81996;SDS011;71500;50.806;8.774;2023-10-31T00:00:11;5.60;;;4.40;;
81996;SDS011;71500;50.806;8.774;2023-10-31T00:03:03;5.70;;;4.40;;
81996;SDS011;71500;50.806;8.774;2023-10-31T00:05:35;7.20;;;4.70;;
81996;SDS011;71500;50.806;8.774;2023-10-31T00:08:06;7.90;;;4.70;;
81996;SDS011;71500;50.806;8.774;2023-10-31T00:10:38;6.20;;;4.50;;
81996;SDS011;71500;50.806;8.774;2023-10-31T00:13:13;6.00;;;4.40;;
81996;SDS011;71500;50.806;8.774;2023-10-31T00:15:45;5.60;;;4.50;;
81996;SDS011;71500;50.806;8.774;2023-10-31T00:18:16;5.00;;;3.90;;
81996;SDS011;71500;50.806;8.774;2023-10-31T00:20:48;5.10;;;3.90;;
81996;SDS011;71500;50.806;8.774;2023-10-31T00:23:19;5.40;;;3.80;;
81996;SDS011;71500;50.806;8.774;2023-10-31T00:25:51;5.30;;;4.00;;
81996;SDS011;71500;50.806;8.774;2023-10-31T00:28:23;4.80;;;3.30;;
81996;SDS011;71500;50.806;8.774;2023-10-31T00:30:54;3.80;;;2.60;;
81996;SDS011;71500;50.806;8.774;2023-10-31T00:33:25;4.90;;;2.90;;
81996;SDS011;71500;50.806;8.774;2023-10-31T00:35:57;3.20;;;2.40;;
81996;SDS011;71500;50.806;8.774;2023-10-31T00:38:28;3.60;;;2.10;;
81996;SDS011;71500;50.806;8.774;2023-10-31T00:40:59;3.10;;;2.10;;
81996;SDS011;71500;50.806;8.774;2023-10-31T00:43:31;3.10;;;1.90;;
81996;SDS011;71500;50.806;8.774;2023-10-31T00:46:03;3.50;;;2.20;;
81996;SDS011;71500;50.806;8.774;2023-10-31T00:48:34;5.00;;;3.40;;
81996;SDS011;71500;50.806;8.774;2023-10-31T00:51:06;3.10;;;2.00;;
81996;SDS011;71500;50.806;8.774;2023-10-31T00:53:37;11.40;;;5.70;;
81996;SDS011;71500;50.806;8.774;2023-10-31T00:56:08;3.60;;;2.30;;
81996;SDS011;71500;50.806;8.774;2023-10-31T00:58:40;2.70;;;1.70;;
81996;SDS011;71500;50.806;8.774;2023-10-31T01:01:11;2.30;;;1.60;;
81996;SDS011;71500;50.806;8.774;2023-10-31T01:03:44;2.80;;;1.50;;
81996;SDS011;71500;50.806;8.774;2023-10-31T01:06:15;2.00;;;1.60;;
81996;SDS011;71500;50.806;8.774;2023-10-31T01:08:47;2.70;;;1.70;;
81996;SDS011;71500;50.806;8.774;2023-10-31T01:11:18;2.10;;;1.60;;
81996;SDS011;71500;50.806;8.774;2023-10-31T01:13:50;1.90;;;1.40;;
81996;SDS011;71500;50.806;8.774;2023-10-31T01:16:21;2.20;;;1.30;;
81996;SDS011;71500;50.806;8.774;2023-10-31T01:18:52;1.40;;;1.10;;
81996;SDS011;71500;50.806;8.774;2023-10-31T01:21:24;2.20;;;1.30;;
81996;SDS011;71500;50.806;8.774;2023-10-31T01:23:55;2.00;;;1.20;;
81996;SDS011;71500;50.806;8.774;2023-10-31T01:26:28;1.50;;;1.20;;
81996;SDS011;71500;50.806;8.774;2023-10-31T01:28:59;1.30;;;0.90;;
81996;SDS011;71500;50.806;8.774;2023-10-31T01:31:31;1.80;;;1.20;;
81996;SDS011;71500;50.806;8.774;2023-10-31T01:34:23;1.20;;;0.90;;
81996;SDS011;71500;50.806;8.774;2023-10-31T01:36:55;1.40;;;1.10;;
81996;SDS011;71500;50.806;8.774;2023-10-31T01:39:26;1.10;;;1.00;;
81996;SDS011;71500;50.806;8.774;2023-10-31T01:41:57;1.00;;;0.90;;
81996;SDS011;71500;50.806;8.774;2023-10-31T01:44:28;1.50;;;1.00;;
81996;SDS011;71500;50.806;8.774;2023-10-31T01:47:00;1.20;;;1.10;;
81996;SDS011;71500;50.806;8.774;2023-10-31T01:49:31;6.60;;;4.50;;
81996;SDS011;71500;50.806;8.774;2023-10-31T01:52:05;8.10;;;4.00;;
81996;SDS011;71500;50.806;8.774;2023-10-31T01:54:37;6.90;;;3.50;;
81996;SDS011;71500;50.806;8.774;2023-10-31T01:57:09;4.70;;;2.90;;
81996;SDS011;71500;50.806;8.774;2023-10-31T01:59:42;1.60;;;1.40;;
81996;SDS011;71500;50.806;8.774;2023-10-31T02:02:13;2.00;;;1.30;;
81996;SDS011;71500;50.806;8.774;2023-10-31T02:04:46;1.20;;;1.00;;
81996;SDS011;71500;50.806;8.774;2023-10-31T02:07:17;1.90;;;1.30;;
81996;SDS011;71500;50.806;8.774;2023-10-31T02:09:48;2.30;;;2.10;;
81996;SDS011;71500;50.806;8.774;2023-10-31T02:12:33;1.30;;;1.20;;
81996;SDS011;71500;50.806;8.774;2023-10-31T02:15:07;2.00;;;1.10;;
81996;SDS011;71500;50.806;8.774;2023-10-31T02:17:40;1.10;;;0.90;;
81996;SDS011;71500;50.806;8.774;2023-10-31T02:20:11;1.00;;;0.90;;
81996;SDS011;71500;50.806;8.774;2023-10-31T02:22:43;2.60;;;1.20;;
81996;SDS011;71500;50.806;8.774;2023-10-31T02:25:18;1.30;;;1.20;;
81996;SDS011;71500;50.806;8.774;2023-10-31T02:27:49;1.60;;;0.80;;
81996;SDS011;71500;50.806;8.774;2023-10-31T02:30:21;1.40;;;1.30;;
81996;SDS011;71500;50.806;8.774;2023-10-31T02:32:52;1.60;;;1.30;;
81996;SDS011;71500;50.806;8.774;2023-10-31T02:35:24;1.30;;;1.20;;
81996;SDS011;71500;50.806;8.774;2023-10-31T02:37:55;0.90;;;0.90;;
81996;SDS011;71500;50.806;8.774;2023-10-31T02:40:26;1.20;;;1.10;;
81996;SDS011;71500;50.806;8.774;2023-10-31T02:42:58;1.30;;;1.10;;
81996;SDS011;71500;50.806;8.774;2023-10-31T02:45:30;1.70;;;1.20;;
81996;SDS011;71500;50.806;8.774;2023-10-31T02:48:01;1.10;;;1.00;;
81996;SDS011;71500;50.806;8.774;2023-10-31T02:50:33;0.80;;;0.70;;
81996;SDS011;71500;50.806;8.774;2023-10-31T02:53:04;1.00;;;0.90;;
81996;SDS011;71500;50.806;8.774;2023-10-31T02:55:36;1.40;;;1.10;;
81996;SDS011;71500;50.806;8.774;2023-10-31T02:58:07;1.60;;;1.00;;
81996;SDS011;71500;50.806;8.774;2023-10-31T03:00:39;1.10;;;1.10;;
81996;SDS011;71500;50.806;8.774;2023-10-31T03:03:11;1.40;;;1.00;;
81996;SDS011;71500;50.806;8.774;2023-10-31T03:05:42;1.40;;;1.30;;
81996;SDS011;71500;50.806;8.774;2023-10-31T03:08:14;1.60;;;1.20;;
81996;SDS011;71500;50.806;8.774;2023-10-31T03:10:49;1.10;;;0.80;;
81996;SDS011;71500;50.806;8.774;2023-10-31T03:13:21;0.80;;;0.80;;
81996;SDS011;71500;50.806;8.774;2023-10-31T03:15:52;2.00;;;1.20;;
81996;SDS011;71500;50.806;8.774;2023-10-31T03:18:23;1.80;;;1.40;;
81996;SDS011;71500;50.806;8.774;2023-10-31T03:20:55;1.40;;;1.10;;
81996;SDS011;71500;50.806;8.774;2023-10-31T03:23:26;1.70;;;1.00;;
81996;SDS011;71500;50.806;8.774;2023-10-31T03:25:57;1.40;;;1.00;;
81996;SDS011;71500;50.806;8.774;2023-10-31T03:28:29;1.10;;;0.90;;
81996;SDS011;71500;50.806;8.774;2023-10-31T03:31:00;1.70;;;1.10;;
81996;SDS011;71500;50.806;8.774;2023-10-31T03:33:32;1.20;;;1.00;;
81996;SDS011;71500;50.806;8.774;2023-10-31T03:36:04;1.50;;;1.20;;
81996;SDS011;71500;50.806;8.774;2023-10-31T03:38:36;1.40;;;1.10;;
81996;SDS011;71500;50.806;8.774;2023-10-31T03:41:08;1.10;;;0.90;;
81996;SDS011;71500;50.806;8.774;2023-10-31T03:43:40;1.30;;;1.10;;
81996;SDS011;71500;50.806;8.774;2023-10-31T03:46:12;1.40;;;1.20;;
81996;SDS011;71500;50.806;8.774;2023-10-31T03:48:43;1.70;;;1.10;;
81996;SDS011;71500;50.806;8.774;2023-10-31T03:51:16;1.70;;;1.10;;
81996;SDS011;71500;50.806;8.774;2023-10-31T03:53:47;1.40;;;1.00;;
81996;SDS011;71500;50.806;8.774;2023-10-31T03:56:18;1.50;;;1.10;;
81996;SDS011;71500;50.806;8.774;2023-10-31T03:58:50;2.00;;;1.10;;
81996;SDS011;71500;50.806;8.774;2023-10-31T04:01:21;1.90;;;1.20;;
81996;SDS011;71500;50.806;8.774;2023-10-31T04:03:52;0.90;;;0.80;;
81996;SDS011;71500;50.806;8.774;2023-10-31T04:06:24;2.20;;;1.20;;
81996;SDS011;71500;50.806;8.774;2023-10-31T04:08:55;1.40;;;1.10;;
81996;SDS011;71500;50.806;8.774;2023-10-31T04:11:27;3.10;;;1.40;;
81996;SDS011;71500;50.806;8.774;2023-10-31T04:13:58;1.50;;;1.00;;
81996;SDS011;71500;50.806;8.774;2023-10-31T04:16:29;2.50;;;1.40;;
81996;SDS011;71500;50.806;8.774;2023-10-31T04:19:03;2.00;;;1.30;;
81996;SDS011;71500;50.806;8.774;2023-10-31T04:21:35;1.90;;;1.20;;
81996;SDS011;71500;50.806;8.774;2023-10-31T04:24:07;1.90;;;1.20;;
81996;SDS011;71500;50.806;8.774;2023-10-31T04:26:39;2.00;;;1.10;;
81996;SDS011;71500;50.806;8.774;2023-10-31T04:29:11;2.30;;;2.10;;
81996;SDS011;71500;50.806;8.774;2023-10-31T04:31:42;2.50;;;0.90;;
81996;SDS011;71500;50.806;8.774;2023-10-31T04:34:14;1.40;;;1.20;;
81996;SDS011;71500;50.806;8.774;2023-10-31T04:36:45;1.10;;;1.00;;
81996;SDS011;71500;50.806;8.774;2023-10-31T04:39:17;1.60;;;1.10;;
81996;SDS011;71500;50.806;8.774;2023-10-31T04:41:48;2.30;;;1.10;;
81996;SDS011;71500;50.806;8.774;2023-10-31T04:44:19;2.60;;;1.30;;
81996;SDS011;71500;50.806;8.774;2023-10-31T04:46:51;1.20;;;1.00;;
81996;SDS011;71500;50.806;8.774;2023-10-31T04:49:22;1.60;;;1.20;;
81996;SDS011;71500;50.806;8.774;2023-10-31T04:51:54;1.30;;;1.10;;
81996;SDS011;71500;50.806;8.774;2023-10-31T04:54:25;1.80;;;1.20;;
81996;SDS011;71500;50.806;8.774;2023-10-31T04:56:57;3.20;;;1.70;;
81996;SDS011;71500;50.806;8.774;2023-10-31T04:59:28;2.60;;;1.60;;
81996;SDS011;71500;50.806;8.774;2023-10-31T05:01:59;1.90;;;1.10;;
81996;SDS011;71500;50.806;8.774;2023-10-31T05:04:31;3.50;;;1.40;;
81996;SDS011;71500;50.806;8.774;2023-10-31T05:07:02;1.10;;;0.90;;
81996;SDS011;71500;50.806;8.774;2023-10-31T05:09:34;2.10;;;0.90;;
81996;SDS011;71500;50.806;8.774;2023-10-31T05:12:06;2.20;;;1.00;;
81996;SDS011;71500;50.806;8.774;2023-10-31T05:14:38;1.10;;;1.00;;
81996;SDS011;71500;50.806;8.774;2023-10-31T05:19:40;1.70;;;1.50;;
81996;SDS011;71500;50.806;8.774;2023-10-31T05:22:12;1.50;;;1.20;;
81996;SDS011;71500;50.806;8.774;2023-10-31T05:24:43;1.30;;;1.10;;
81996;SDS011;71500;50.806;8.774;2023-10-31T05:27:14;1.10;;;1.00;;
81996;SDS011;71500;50.806;8.774;2023-10-31T05:29:46;1.40;;;0.90;;
81996;SDS011;71500;50.806;8.774;2023-10-31T05:32:17;3.00;;;1.20;;
81996;SDS011;71500;50.806;8.774;2023-10-31T05:34:49;2.70;;;1.00;;
81996;SDS011;71500;50.806;8.774;2023-10-31T05:37:20;1.60;;;1.40;;
81996;SDS011;71500;50.806;8.774;2023-10-31T05:39:51;1.90;;;1.30;;
81996;SDS011;71500;50.806;8.774;2023-10-31T05:42:23;2.70;;;1.30;;
81996;SDS011;71500;50.806;8.774;2023-10-31T05:44:56;2.90;;;1.30;;
81996;SDS011;71500;50.806;8.774;2023-10-31T05:47:27;1.40;;;1.20;;
81996;SDS011;71500;50.806;8.774;2023-10-31T05:49:58;2.40;;;1.40;;
81996;SDS011;71500;50.806;8.774;2023-10-31T05:52:30;2.20;;;1.20;;
81996;SDS011;71500;50.806;8.774;2023-10-31T05:55:01;1.50;;;1.20;;
81996;SDS011;71500;50.806;8.774;2023-10-31T05:57:33;1.70;;;1.10;;
81996;SDS011;71500;50.806;8.774;2023-10-31T06:00:05;2.30;;;1.20;;
81996;SDS011;71500;50.806;8.774;2023-10-31T06:02:38;1.20;;;1.10;;
81996;SDS011;71500;50.806;8.774;2023-10-31T06:05:09;1.20;;;1.10;;
81996;SDS011;71500;50.806;8.774;2023-10-31T06:07:41;2.60;;;1.20;;
81996;SDS011;71500;50.806;8.774;2023-10-31T06:10:12;1.30;;;0.90;;
81996;SDS011;71500;50.806;8.774;2023-10-31T06:12:44;1.50;;;1.20;;
81996;SDS011;71500;50.806;8.774;2023-10-31T06:15:15;2.00;;;1.40;;
81996;SDS011;71500;50.806;8.774;2023-10-31T06:17:47;1.70;;;1.20;;
81996;SDS011;71500;50.806;8.774;2023-10-31T06:20:18;1.40;;;1.10;;
81996;SDS011;71500;50.806;8.774;2023-10-31T06:22:49;1.70;;;1.10;;
81996;SDS011;71500;50.806;8.774;2023-10-31T06:25:21;2.30;;;1.00;;
81996;SDS011;71500;50.806;8.774;2023-10-31T06:27:52;1.60;;;1.30;;
81996;SDS011;71500;50.806;8.774;2023-10-31T06:30:23;2.50;;;1.30;;
81996;SDS011;71500;50.806;8.774;2023-10-31T06:32:58;1.90;;;1.50;;
81996;SDS011;71500;50.806;8.774;2023-10-31T06:35:30;1.20;;;0.90;;
81996;SDS011;71500;50.806;8.774;2023-10-31T06:38:01;1.60;;;1.20;;
81996;SDS011;71500;50.806;8.774;2023-10-31T06:40:33;1.00;;;0.90;;
81996;SDS011;71500;50.806;8.774;2023-10-31T06:43:04;2.30;;;1.40;;
81996;SDS011;71500;50.806;8.774;2023-10-31T06:45:35;2.30;;;1.30;;
81996;SDS011;71500;50.806;8.774;2023-10-31T06:48:08;2.50;;;1.30;;
81996;SDS011;71500;50.806;8.774;2023-10-31T06:50:39;1.70;;;1.30;;
81996;SDS011;71500;50.806;8.774;2023-10-31T06:53:11;2.00;;;1.20;;
81996;SDS011;71500;50.806;8.774;2023-10-31T06:55:42;2.40;;;1.40;;
81996;SDS011;71500;50.806;8.774;2023-10-31T06:58:14;1.70;;;1.40;;
81996;SDS011;71500;50.806;8.774;2023-10-31T07:00:45;2.00;;;1.60;;
81996;SDS011;71500;50.806;8.774;2023-10-31T07:03:16;2.20;;;1.40;;
81996;SDS011;71500;50.806;8.774;2023-10-31T07:05:48;1.60;;;1.40;;
81996;SDS011;71500;50.806;8.774;2023-10-31T07:08:20;2.00;;;1.40;;
81996;SDS011;71500;50.806;8.774;2023-10-31T07:10:51;3.30;;;1.70;;
81996;SDS011;71500;50.806;8.774;2023-10-31T07:13:22;1.60;;;1.30;;
81996;SDS011;71500;50.806;8.774;2023-10-31T07:15:54;1.50;;;1.20;;
81996;SDS011;71500;50.806;8.774;2023-10-31T07:18:25;2.50;;;1.60;;
81996;SDS011;71500;50.806;8.774;2023-10-31T07:20:57;2.30;;;1.60;;
81996;SDS011;71500;50.806;8.774;2023-10-31T07:23:28;2.60;;;1.70;;
81996;SDS011;71500;50.806;8.774;2023-10-31T07:25:59;2.80;;;1.40;;
81996;SDS011;71500;50.806;8.774;2023-10-31T07:28:31;1.70;;;1.30;;
81996;SDS011;71500;50.806;8.774;2023-10-31T07:31:03;3.10;;;1.80;;
81996;SDS011;71500;50.806;8.774;2023-10-31T07:33:34;2.90;;;1.60;;
81996;SDS011;71500;50.806;8.774;2023-10-31T07:36:07;2.00;;;1.40;;
81996;SDS011;71500;50.806;8.774;2023-10-31T07:38:38;1.90;;;1.40;;
81996;SDS011;71500;50.806;8.774;2023-10-31T07:41:10;2.20;;;1.40;;
81996;SDS011;71500;50.806;8.774;2023-10-31T07:43:41;3.20;;;1.60;;
81996;SDS011;71500;50.806;8.774;2023-10-31T07:46:12;2.70;;;1.80;;
81996;SDS011;71500;50.806;8.774;2023-10-31T07:48:44;3.60;;;2.10;;
81996;SDS011;71500;50.806;8.774;2023-10-31T07:51:15;2.30;;;1.40;;
81996;SDS011;71500;50.806;8.774;2023-10-31T07:53:47;2.10;;;1.70;;
81996;SDS011;71500;50.806;8.774;2023-10-31T07:56:19;1.80;;;1.30;;
81996;SDS011;71500;50.806;8.774;2023-10-31T07:58:52;2.40;;;1.20;;
81996;SDS011;71500;50.806;8.774;2023-10-31T08:01:24;1.80;;;1.20;;
81996;SDS011;71500;50.806;8.774;2023-10-31T08:03:57;2.00;;;1.30;;
81996;SDS011;71500;50.806;8.774;2023-10-31T08:06:29;1.90;;;1.20;;
81996;SDS011;71500;50.806;8.774;2023-10-31T08:09:00;1.90;;;1.30;;
81996;SDS011;71500;50.806;8.774;2023-10-31T08:11:34;1.60;;;1.30;;
81996;SDS011;71500;50.806;8.774;2023-10-31T08:14:05;1.50;;;1.30;;
81996;SDS011;71500;50.806;8.774;2023-10-31T08:16:37;2.90;;;1.70;;
81996;SDS011;71500;50.806;8.774;2023-10-31T08:19:08;5.50;;;2.00;;
81996;SDS011;71500;50.806;8.774;2023-10-31T08:21:41;2.80;;;1.70;;
81996;SDS011;71500;50.806;8.774;2023-10-31T08:24:12;6.10;;;3.50;;
81996;SDS011;71500;50.806;8.774;2023-10-31T08:26:44;6.00;;;3.90;;
81996;SDS011;71500;50.806;8.774;2023-10-31T08:29:15;4.50;;;2.40;;
81996;SDS011;71500;50.806;8.774;2023-10-31T08:31:46;4.30;;;2.90;;
81996;SDS011;71500;50.806;8.774;2023-10-31T08:34:18;5.00;;;2.70;;
81996;SDS011;71500;50.806;8.774;2023-10-31T08:36:49;3.50;;;2.00;;
81996;SDS011;71500;50.806;8.774;2023-10-31T08:39:21;7.90;;;4.70;;
81996;SDS011;71500;50.806;8.774;2023-10-31T08:41:53;5.30;;;3.20;;
81996;SDS011;71500;50.806;8.774;2023-10-31T08:44:26;4.20;;;2.80;;
81996;SDS011;71500;50.806;8.774;2023-10-31T08:46:57;1.90;;;1.30;;
81996;SDS011;71500;50.806;8.774;2023-10-31T08:49:29;1.80;;;1.40;;
81996;SDS011;71500;50.806;8.774;2023-10-31T08:52:00;3.10;;;1.50;;
81996;SDS011;71500;50.806;8.774;2023-10-31T08:54:32;2.40;;;1.30;;
81996;SDS011;71500;50.806;8.774;2023-10-31T08:57:04;1.60;;;1.10;;
81996;SDS011;71500;50.806;8.774;2023-10-31T08:59:36;2.80;;;1.50;;
81996;SDS011;71500;50.806;8.774;2023-10-31T09:02:08;2.00;;;1.40;;
81996;SDS011;71500;50.806;8.774;2023-10-31T09:04:40;2.40;;;1.80;;
81996;SDS011;71500;50.806;8.774;2023-10-31T09:07:11;10.80;;;1.90;;
81996;SDS011;71500;50.806;8.774;2023-10-31T09:09:44;2.50;;;1.30;;
81996;SDS011;71500;50.806;8.774;2023-10-31T09:12:15;1.90;;;1.40;;
81996;SDS011;71500;50.806;8.774;2023-10-31T09:14:46;2.60;;;1.30;;
81996;SDS011;71500;50.806;8.774;2023-10-31T09:17:17;2.10;;;1.20;;
81996;SDS011;71500;50.806;8.774;2023-10-31T09:19:49;3.20;;;1.50;;
81996;SDS011;71500;50.806;8.774;2023-10-31T09:22:22;2.00;;;1.50;;
81996;SDS011;71500;50.806;8.774;2023-10-31T09:24:56;1.50;;;1.30;;
81996;SDS011;71500;50.806;8.774;2023-10-31T09:27:27;2.30;;;1.50;;
81996;SDS011;71500;50.806;8.774;2023-10-31T09:29:59;3.90;;;1.80;;
81996;SDS011;71500;50.806;8.774;2023-10-31T09:32:30;2.40;;;1.80;;
81996;SDS011;71500;50.806;8.774;2023-10-31T09:35:02;2.70;;;1.80;;
81996;SDS011;71500;50.806;8.774;2023-10-31T09:37:35;2.90;;;1.60;;
81996;SDS011;71500;50.806;8.774;2023-10-31T09:40:09;2.30;;;1.70;;
81996;SDS011;71500;50.806;8.774;2023-10-31T09:45:11;1.40;;;1.20;;
81996;SDS011;71500;50.806;8.774;2023-10-31T09:47:43;1.90;;;1.30;;
81996;SDS011;71500;50.806;8.774;2023-10-31T09:50:15;2.50;;;1.40;;
81996;SDS011;71500;50.806;8.774;2023-10-31T09:52:46;1.70;;;1.20;;
81996;SDS011;71500;50.806;8.774;2023-10-31T09:55:18;3.40;;;1.60;;
81996;SDS011;71500;50.806;8.774;2023-10-31T09:57:50;1.80;;;1.30;;
81996;SDS011;71500;50.806;8.774;2023-10-31T10:00:22;2.20;;;1.60;;
81996;SDS011;71500;50.806;8.774;2023-10-31T10:02:53;2.00;;;1.50;;
81996;SDS011;71500;50.806;8.774;2023-10-31T10:05:26;2.80;;;1.90;;
81996;SDS011;71500;50.806;8.774;2023-10-31T10:07:59;2.60;;;1.80;;
81996;SDS011;71500;50.806;8.774;2023-10-31T10:10:32;2.80;;;1.50;;
81996;SDS011;71500;50.806;8.774;2023-10-31T10:13:04;2.10;;;1.50;;
81996;SDS011;71500;50.806;8.774;2023-10-31T10:15:47;1.80;;;1.20;;
81996;SDS011;71500;50.806;8.774;2023-10-31T10:18:25;3.20;;;1.70;;
81996;SDS011;71500;50.806;8.774;2023-10-31T10:20:57;3.10;;;1.60;;
81996;SDS011;71500;50.806;8.774;2023-10-31T10:23:30;2.40;;;1.30;;
81996;SDS011;71500;50.806;8.774;2023-10-31T10:26:04;4.10;;;1.80;;
81996;SDS011;71500;50.806;8.774;2023-10-31T10:28:36;3.20;;;2.10;;
81996;SDS011;71500;50.806;8.774;2023-10-31T10:31:08;14.40;;;10.20;;
81996;SDS011;71500;50.806;8.774;2023-10-31T10:33:44;8.10;;;5.50;;
81996;SDS011;71500;50.806;8.774;2023-10-31T10:36:16;4.30;;;2.70;;
81996;SDS011;71500;50.806;8.774;2023-10-31T10:38:48;46.60;;;18.90;;
81996;SDS011;71500;50.806;8.774;2023-10-31T10:41:26;15.90;;;11.50;;
81996;SDS011;71500;50.806;8.774;2023-10-31T10:44:02;9.40;;;5.30;;
81996;SDS011;71500;50.806;8.774;2023-10-31T10:46:36;7.60;;;4.20;;
81996;SDS011;71500;50.806;8.774;2023-10-31T10:49:08;4.10;;;2.70;;
81996;SDS011;71500;50.806;8.774;2023-10-31T10:51:45;5.00;;;2.30;;
81996;SDS011;71500;50.806;8.774;2023-10-31T10:54:25;4.70;;;2.30;;
81996;SDS011;71500;50.806;8.774;2023-10-31T10:57:05;4.50;;;2.30;;
81996;SDS011;71500;50.806;8.774;2023-10-31T10:59:45;5.60;;;2.70;;
81996;SDS011;71500;50.806;8.774;2023-10-31T11:02:21;7.00;;;4.10;;
81996;SDS011;71500;50.806;8.774;2023-10-31T11:04:55;6.80;;;4.50;;
81996;SDS011;71500;50.806;8.774;2023-10-31T11:07:28;9.00;;;7.40;;
81996;SDS011;71500;50.806;8.774;2023-10-31T11:10:00;6.40;;;4.80;;
81996;SDS011;71500;50.806;8.774;2023-10-31T11:12:33;14.40;;;7.50;;
81996;SDS011;71500;50.806;8.774;2023-10-31T11:17:39;4.20;;;2.30;;
81996;SDS011;71500;50.806;8.774;2023-10-31T11:20:13;3.90;;;2.00;;
81996;SDS011;71500;50.806;8.774;2023-10-31T11:22:46;4.50;;;1.80;;
81996;SDS011;71500;50.806;8.774;2023-10-31T11:25:25;3.50;;;2.10;;
81996;SDS011;71500;50.806;8.774;2023-10-31T11:28:13;2.10;;;1.40;;
81996;SDS011;71500;50.806;8.774;2023-10-31T11:30:47;2.30;;;1.40;;
81996;SDS011;71500;50.806;8.774;2023-10-31T11:33:20;2.50;;;1.50;;
81996;SDS011;71500;50.806;8.774;2023-10-31T11:38:32;2.70;;;2.00;;
81996;SDS011;71500;50.806;8.774;2023-10-31T11:41:05;4.00;;;1.60;;
81996;SDS011;71500;50.806;8.774;2023-10-31T11:46:23;6.30;;;4.20;;
81996;SDS011;71500;50.806;8.774;2023-10-31T11:48:57;10.10;;;4.30;;
81996;SDS011;71500;50.806;8.774;2023-10-31T11:51:30;6.70;;;3.30;;
81996;SDS011;71500;50.806;8.774;2023-10-31T11:54:03;3.40;;;1.80;;
81996;SDS011;71500;50.806;8.774;2023-10-31T11:56:37;2.20;;;1.60;;
81996;SDS011;71500;50.806;8.774;2023-10-31T11:59:08;2.60;;;1.70;;
81996;SDS011;71500;50.806;8.774;2023-10-31T12:01:46;2.90;;;1.40;;
81996;SDS011;71500;50.806;8.774;2023-10-31T12:04:23;3.40;;;1.50;;
81996;SDS011;71500;50.806;8.774;2023-10-31T12:06:58;3.10;;;1.50;;
81996;SDS011;71500;50.806;8.774;2023-10-31T12:09:30;3.00;;;1.40;;
81996;SDS011;71500;50.806;8.774;2023-10-31T12:12:01;3.40;;;1.50;;
81996;SDS011;71500;50.806;8.774;2023-10-31T12:14:33;2.50;;;1.40;;
81996;SDS011;71500;50.806;8.774;2023-10-31T12:17:06;4.20;;;1.80;;
81996;SDS011;71500;50.806;8.774;2023-10-31T12:19:39;2.50;;;1.10;;
81996;SDS011;71500;50.806;8.774;2023-10-31T12:22:14;2.10;;;1.30;;
81996;SDS011;71500;50.806;8.774;2023-10-31T12:24:45;2.90;;;1.20;;
81996;SDS011;71500;50.806;8.774;2023-10-31T12:27:17;1.60;;;1.40;;
81996;SDS011;71500;50.806;8.774;2023-10-31T12:29:48;2.40;;;1.30;;
81996;SDS011;71500;50.806;8.774;2023-10-31T12:32:31;1.40;;;1.20;;
81996;SDS011;71500;50.806;8.774;2023-10-31T12:35:03;2.50;;;1.30;;
81996;SDS011;71500;50.806;8.774;2023-10-31T12:37:36;2.00;;;1.30;;
81996;SDS011;71500;50.806;8.774;2023-10-31T12:40:09;11.10;;;5.50;;
81996;SDS011;71500;50.806;8.774;2023-10-31T12:42:41;9.50;;;5.80;;
81996;SDS011;71500;50.806;8.774;2023-10-31T12:45:14;4.00;;;2.40;;
81996;SDS011;71500;50.806;8.774;2023-10-31T12:47:59;3.10;;;1.90;;
81996;SDS011;71500;50.806;8.774;2023-10-31T12:50:32;2.20;;;1.50;;
81996;SDS011;71500;50.806;8.774;2023-10-31T12:53:05;2.60;;;1.50;;
81996;SDS011;71500;50.806;8.774;2023-10-31T12:55:40;2.20;;;1.50;;
81996;SDS011;71500;50.806;8.774;2023-10-31T12:58:20;3.30;;;1.30;;
81996;SDS011;71500;50.806;8.774;2023-10-31T13:00:52;5.30;;;1.70;;
81996;SDS011;71500;50.806;8.774;2023-10-31T13:03:24;3.90;;;1.40;;
81996;SDS011;71500;50.806;8.774;2023-10-31T13:05:56;3.00;;;1.70;;
81996;SDS011;71500;50.806;8.774;2023-10-31T13:08:27;4.00;;;1.70;;
81996;SDS011;71500;50.806;8.774;2023-10-31T13:10:58;3.70;;;1.90;;
81996;SDS011;71500;50.806;8.774;2023-10-31T13:13:32;2.90;;;1.60;;
81996;SDS011;71500;50.806;8.774;2023-10-31T13:16:04;3.90;;;1.50;;
81996;SDS011;71500;50.806;8.774;2023-10-31T13:18:36;2.40;;;1.30;;
81996;SDS011;71500;50.806;8.774;2023-10-31T13:21:07;2.10;;;1.40;;
81996;SDS011;71500;50.806;8.774;2023-10-31T13:23:39;2.30;;;1.50;;
81996;SDS011;71500;50.806;8.774;2023-10-31T13:26:13;2.70;;;1.50;;
81996;SDS011;71500;50.806;8.774;2023-10-31T13:28:45;2.20;;;1.40;;
81996;SDS011;71500;50.806;8.774;2023-10-31T13:31:16;2.80;;;1.60;;
81996;SDS011;71500;50.806;8.774;2023-10-31T13:33:48;2.20;;;1.40;;
81996;SDS011;71500;50.806;8.774;2023-10-31T13:36:19;2.70;;;1.60;;
81996;SDS011;71500;50.806;8.774;2023-10-31T13:38:51;2.80;;;1.50;;
81996;SDS011;71500;50.806;8.774;2023-10-31T13:41:22;2.90;;;1.50;;
81996;SDS011;71500;50.806;8.774;2023-10-31T13:43:54;3.30;;;1.50;;
81996;SDS011;71500;50.806;8.774;2023-10-31T13:46:26;2.30;;;1.30;;
81996;SDS011;71500;50.806;8.774;2023-10-31T13:48:57;3.50;;;1.60;;
81996;SDS011;71500;50.806;8.774;2023-10-31T13:51:29;2.60;;;1.80;;
81996;SDS011;71500;50.806;8.774;2023-10-31T13:54:00;2.30;;;1.40;;
81996;SDS011;71500;50.806;8.774;2023-10-31T13:56:32;1.80;;;1.30;;
81996;SDS011;71500;50.806;8.774;2023-10-31T13:59:04;2.00;;;1.30;;
81996;SDS011;71500;50.806;8.774;2023-10-31T14:01:35;4.60;;;3.00;;
81996;SDS011;71500;50.806;8.774;2023-10-31T14:04:07;4.30;;;2.20;;
81996;SDS011;71500;50.806;8.774;2023-10-31T14:06:39;2.80;;;1.50;;
81996;SDS011;71500;50.806;8.774;2023-10-31T14:09:11;2.20;;;1.40;;
81996;SDS011;71500;50.806;8.774;2023-10-31T14:11:43;2.70;;;1.60;;
81996;SDS011;71500;50.806;8.774;2023-10-31T14:14:15;2.50;;;1.30;;
81996;SDS011;71500;50.806;8.774;2023-10-31T14:16:46;3.00;;;1.60;;
81996;SDS011;71500;50.806;8.774;2023-10-31T14:19:18;2.90;;;1.40;;
81996;SDS011;71500;50.806;8.774;2023-10-31T14:21:49;2.60;;;1.40;;
81996;SDS011;71500;50.806;8.774;2023-10-31T14:24:21;2.30;;;1.40;;
81996;SDS011;71500;50.806;8.774;2023-10-31T14:26:53;1.80;;;1.40;;
81996;SDS011;71500;50.806;8.774;2023-10-31T14:29:24;2.90;;;1.80;;
81996;SDS011;71500;50.806;8.774;2023-10-31T14:31:56;2.00;;;1.20;;
81996;SDS011;71500;50.806;8.774;2023-10-31T14:34:34;3.60;;;1.50;;
81996;SDS011;71500;50.806;8.774;2023-10-31T14:37:06;2.60;;;1.90;;
81996;SDS011;71500;50.806;8.774;2023-10-31T14:39:37;2.30;;;1.20;;
81996;SDS011;71500;50.806;8.774;2023-10-31T14:42:09;2.60;;;1.40;;
81996;SDS011;71500;50.806;8.774;2023-10-31T14:44:40;2.60;;;1.40;;
81996;SDS011;71500;50.806;8.774;2023-10-31T14:47:11;2.50;;;1.40;;
81996;SDS011;71500;50.806;8.774;2023-10-31T14:49:43;3.20;;;1.50;;
81996;SDS011;71500;50.806;8.774;2023-10-31T14:52:14;3.60;;;1.30;;
81996;SDS011;71500;50.806;8.774;2023-10-31T14:54:46;2.20;;;1.50;;
81996;SDS011;71500;50.806;8.774;2023-10-31T14:57:20;1.70;;;1.40;;
81996;SDS011;71500;50.806;8.774;2023-10-31T14:59:51;3.60;;;1.60;;
81996;SDS011;71500;50.806;8.774;2023-10-31T15:02:25;2.30;;;1.50;;
81996;SDS011;71500;50.806;8.774;2023-10-31T15:04:57;3.10;;;1.50;;
81996;SDS011;71500;50.806;8.774;2023-10-31T15:07:29;3.20;;;1.50;;
81996;SDS011;71500;50.806;8.774;2023-10-31T15:10:00;2.70;;;1.40;;
81996;SDS011;71500;50.806;8.774;2023-10-31T15:12:32;2.90;;;1.30;;
81996;SDS011;71500;50.806;8.774;2023-10-31T15:15:04;2.40;;;1.40;;
81996;SDS011;71500;50.806;8.774;2023-10-31T15:20:07;3.20;;;1.40;;
81996;SDS011;71500;50.806;8.774;2023-10-31T15:22:41;3.00;;;1.30;;
81996;SDS011;71500;50.806;8.774;2023-10-31T15:25:13;2.20;;;1.40;;
81996;SDS011;71500;50.806;8.774;2023-10-31T15:27:44;2.70;;;1.40;;
81996;SDS011;71500;50.806;8.774;2023-10-31T15:30:17;1.80;;;1.20;;
81996;SDS011;71500;50.806;8.774;2023-10-31T15:32:48;2.90;;;1.40;;